TAF Flughafenprognosen

Nürnberg TAF, ausgegeben Mo 14.10. 13:00

TAF EDDN 141100Z 1412/1512 11004KT CAVOK
GültigkeitVonBisWind in Beaufort
(Knoten)
Wolken
(Meter über Grund)
Sichtweite
(Meter)
Wettererscheinung
Grundvorhersage Mo 14.10. 14:00 Di 15.10. 14:00 OSO 2 (4)      

 

Hof TAF, ausgegeben Mo 14.10. 13:00

TAF EDQM 141100Z 1412/1421 15004KT CAVOK
GültigkeitVonBisWind in Beaufort
(Knoten)
Wolken
(Meter über Grund)
Sichtweite
(Meter)
Wettererscheinung
Grundvorhersage Mo 14.10. 14:00 Mo 14.10. 23:00 SSO 2 (4)      

 

Erfurt-Bindersleben TAF, ausgegeben Mo 14.10. 13:00

TAF EDDE 141100Z 1412/1512 19005KT CAVOK
GültigkeitVonBisWind in Beaufort
(Knoten)
Wolken
(Meter über Grund)
Sichtweite
(Meter)
Wettererscheinung
Grundvorhersage Mo 14.10. 14:00 Di 15.10. 14:00 S 2 (5)      

 

Augsburg TAF, ausgegeben Mo 14.10. 13:00

TAF EDMA 141100Z 1412/1421 04004KT CAVOK TEMPO 1419/1421 1200 BCFG
GültigkeitVonBisWind in Beaufort
(Knoten)
Wolken
(Meter über Grund)
Sichtweite
(Meter)
Wettererscheinung
Grundvorhersage Mo 14.10. 14:00 Mo 14.10. 23:00 NO 2 (4) Nicht signifikant >= 10000  
Vorübergehend Mo 14.10. 21:00 Mo 14.10. 23:00     1200 Nebel-Bänke

 

Frankfurt TAF, ausgegeben Mo 14.10. 13:00

TAF EDDF 141100Z 1412/1518 19006KT CAVOK BECMG 1414/1416 12005KT BECMG 1417/1419 04004KT BECMG 1512/1515 22007KT TEMPO 1514/1516 4000 SHRA BKN020CB TEMPO 1516/1518 RA BKN025
GültigkeitVonBisWind in Beaufort
(Knoten)
Wolken
(Meter über Grund)
Sichtweite
(Meter)
Wettererscheinung
Grundvorhersage Mo 14.10. 14:00 Di 15.10. 20:00 S 2 (6) Nicht signifikant >= 10000  
Übergang zu Mo 14.10. 16:00 Mo 14.10. 18:00 OSO 2 (5)      
Übergang zu Mo 14.10. 19:00 Mo 14.10. 21:00 NO 2 (4)      
Übergang zu Di 15.10. 14:00 Di 15.10. 17:00 SW 3 (7)      
Vorübergehend Di 15.10. 16:00 Di 15.10. 18:00   Stark bewölkt Cb (610) 4000 Regen-Schauer
Vorübergehend Di 15.10. 18:00 Di 15.10. 20:00   Stark bewölkt (760)   Regen

 

Stuttgart TAF, ausgegeben Mo 14.10. 13:00

TAF EDDS 141100Z 1412/1512 08005KT CAVOK BECMG 1416/1419 VRB02KT PROB30 TEMPO 1500/1507 2500 BCFG BECMG 1510/1512 21007KT
GültigkeitVonBisWind in Beaufort
(Knoten)
Wolken
(Meter über Grund)
Sichtweite
(Meter)
Wettererscheinung
Grundvorhersage Mo 14.10. 14:00 Di 15.10. 14:00 O 2 (5) Nicht signifikant >= 10000  
Übergang zu Mo 14.10. 18:00 Mo 14.10. 21:00 Uml 1 (2)      
Vorübergehend
(Wahrscheinlichkeit 30 %)
Di 15.10. 02:00 Di 15.10. 09:00     2500 Nebel-Bänke
Übergang zu Di 15.10. 12:00 Di 15.10. 14:00 SSW 3 (7)      

 

München TAF, ausgegeben Mo 14.10. 13:00

TAF EDDM 141100Z 1412/1518 04004KT CAVOK TEMPO 1421/1423 2500 BCFG TEMPO 1423/1508 0400 FG OVC001 BECMG 1507/1509 10006KT TEMPO 1508/1510 OVC004 BECMG 1513/1515 23006KT
GültigkeitVonBisWind in Beaufort
(Knoten)
Wolken
(Meter über Grund)
Sichtweite
(Meter)
Wettererscheinung
Grundvorhersage Mo 14.10. 14:00 Di 15.10. 20:00 NO 2 (4) Nicht signifikant >= 10000  
Vorübergehend Mo 14.10. 23:00 Di 15.10. 01:00     2500 Nebel-Bänke
Vorübergehend Di 15.10. 01:00 Di 15.10. 10:00   Bedeckt (30) 400 Nebel
Übergang zu Di 15.10. 09:00 Di 15.10. 11:00 O 2 (6)      
Vorübergehend Di 15.10. 10:00 Di 15.10. 12:00   Bedeckt (120)    
Übergang zu Di 15.10. 15:00 Di 15.10. 17:00 SW 2 (6)